ウシュアイア の空港の天気 - METARとTAF

ウシュアイア空港 ( SAWH / USH ) - アルゼンチン ティエラ・デル・フエゴ州、ウシュアイア
飛行場実況気象(Metar)
観測時間12/10 02:00 ART (12/10 05:00 UTC)
風向・風速静穏 0m/s
視程10km以上
天気現象
全天の4割程度の雲 雲底高度 1370m
全天の8割程度の雲 雲底高度 3050m
気温11℃
湿度58%
気圧993hPa
METARSAWH 100500Z 00000KT 9999 SCT045 BKN100 11/03 Q0993
過去の天気等 Google飛行場航空写真 Wunderground天気予報

過去48時間のMETAR

飛行場予報(TAF)
発表時間: 12/09 20:00 ART (12/09 23:00 UTC)
予報対象時間: 9日21時 ART ~ 10日21時 ART
風向・風速西 5m/s
視程10km以上
全天の8割程度の雲 雲底高度 760m
全天の8割程度の雲 雲底高度 1220m
10日9時 ART ~ 10日9時 ART に徐々に
風向・風速北西 10m/s
TAF SAWH 092300Z 1000/1024 28010KT 9999 BKN025 BKN040 TX20/1019Z TN08/1010Z
BECMG 1012/1012 32020KT